sensor_id;sensor_type;location;lat;lon;timestamp;pressure;altitude;pressure_sealevel;temperature;humidity
13422;BME280;6782;55.904;13.396;2024-03-06T00:00:42;101978.56;;;2.47;100.00
13422;BME280;6782;55.904;13.396;2024-03-06T00:03:30;101986.34;;;2.47;100.00
13422;BME280;6782;55.904;13.396;2024-03-06T00:06:18;101991.56;;;2.47;100.00
13422;BME280;6782;55.904;13.396;2024-03-06T00:09:05;101995.03;;;2.46;100.00
13422;BME280;6782;55.904;13.396;2024-03-06T00:11:54;102010.75;;;2.49;100.00
13422;BME280;6782;55.904;13.396;2024-03-06T00:14:42;102005.44;;;2.46;100.00
13422;BME280;6782;55.904;13.396;2024-03-06T00:17:30;102017.78;;;2.53;100.00
13422;BME280;6782;55.904;13.396;2024-03-06T00:20:18;102029.13;;;2.55;100.00
13422;BME280;6782;55.904;13.396;2024-03-06T00:23:05;102026.63;;;2.58;100.00
13422;BME280;6782;55.904;13.396;2024-03-06T00:25:52;102043.06;;;2.57;100.00
13422;BME280;6782;55.904;13.396;2024-03-06T00:28:40;102052.75;;;2.61;100.00
13422;BME280;6782;55.904;13.396;2024-03-06T00:31:27;102049.13;;;2.56;100.00
13422;BME280;6782;55.904;13.396;2024-03-06T00:34:17;102058.06;;;2.64;100.00
13422;BME280;6782;55.904;13.396;2024-03-06T00:37:04;102047.47;;;2.58;100.00
13422;BME280;6782;55.904;13.396;2024-03-06T00:39:52;102064.00;;;2.60;100.00
13422;BME280;6782;55.904;13.396;2024-03-06T00:42:42;102064.94;;;2.62;100.00
13422;BME280;6782;55.904;13.396;2024-03-06T00:45:29;102062.28;;;2.61;100.00
13422;BME280;6782;55.904;13.396;2024-03-06T00:48:17;102074.56;;;2.65;100.00
13422;BME280;6782;55.904;13.396;2024-03-06T00:51:07;102072.72;;;2.61;100.00
13422;BME280;6782;55.904;13.396;2024-03-06T00:53:54;102077.03;;;2.60;100.00
13422;BME280;6782;55.904;13.396;2024-03-06T00:56:42;102092.84;;;2.66;100.00
13422;BME280;6782;55.904;13.396;2024-03-06T00:59:29;102090.97;;;2.62;100.00
13422;BME280;6782;55.904;13.396;2024-03-06T01:02:17;102107.78;;;2.72;100.00
13422;BME280;6782;55.904;13.396;2024-03-06T01:05:04;102116.38;;;2.69;100.00
13422;BME280;6782;55.904;13.396;2024-03-06T01:07:54;102106.59;;;2.62;100.00
13422;BME280;6782;55.904;13.396;2024-03-06T01:10:42;102113.91;;;2.74;100.00
13422;BME280;6782;55.904;13.396;2024-03-06T01:13:29;102128.41;;;2.66;100.00
13422;BME280;6782;55.904;13.396;2024-03-06T01:16:17;102125.84;;;2.67;100.00
13422;BME280;6782;55.904;13.396;2024-03-06T01:19:04;102139.13;;;2.75;100.00
13422;BME280;6782;55.904;13.396;2024-03-06T01:21:51;102146.06;;;2.74;100.00
13422;BME280;6782;55.904;13.396;2024-03-06T01:24:41;102155.63;;;2.75;100.00
13422;BME280;6782;55.904;13.396;2024-03-06T01:27:28;102160.03;;;2.78;100.00
13422;BME280;6782;55.904;13.396;2024-03-06T01:30:16;102160.94;;;2.78;100.00
13422;BME280;6782;55.904;13.396;2024-03-06T01:33:03;102168.81;;;2.80;100.00
13422;BME280;6782;55.904;13.396;2024-03-06T01:35:52;102178.50;;;2.85;100.00
13422;BME280;6782;55.904;13.396;2024-03-06T01:38:40;102189.72;;;2.83;100.00
13422;BME280;6782;55.904;13.396;2024-03-06T01:41:31;102181.97;;;2.84;100.00
13422;BME280;6782;55.904;13.396;2024-03-06T01:44:19;102175.75;;;2.79;100.00
13422;BME280;6782;55.904;13.396;2024-03-06T01:47:06;102203.06;;;2.92;100.00
13422;BME280;6782;55.904;13.396;2024-03-06T01:49:54;102196.91;;;2.90;100.00
13422;BME280;6782;55.904;13.396;2024-03-06T01:52:41;102204.81;;;2.93;100.00
13422;BME280;6782;55.904;13.396;2024-03-06T01:55:30;102209.31;;;2.98;100.00
13422;BME280;6782;55.904;13.396;2024-03-06T01:58:20;102211.09;;;2.99;100.00
13422;BME280;6782;55.904;13.396;2024-03-06T02:01:08;102219.66;;;2.95;100.00
13422;BME280;6782;55.904;13.396;2024-03-06T02:03:55;102236.34;;;3.00;100.00
13422;BME280;6782;55.904;13.396;2024-03-06T02:06:43;102247.59;;;2.99;100.00
13422;BME280;6782;55.904;13.396;2024-03-06T02:09:31;102253.72;;;3.01;100.00
13422;BME280;6782;55.904;13.396;2024-03-06T02:12:19;102253.00;;;3.05;100.00
13422;BME280;6782;55.904;13.396;2024-03-06T02:15:09;102267.09;;;3.12;100.00
13422;BME280;6782;55.904;13.396;2024-03-06T02:17:58;102262.69;;;3.09;100.00
13422;BME280;6782;55.904;13.396;2024-03-06T02:20:47;102271.63;;;3.17;100.00
13422;BME280;6782;55.904;13.396;2024-03-06T02:23:36;102257.44;;;3.08;100.00
13422;BME280;6782;55.904;13.396;2024-03-06T02:26:24;102274.09;;;3.13;100.00
13422;BME280;6782;55.904;13.396;2024-03-06T02:29:11;102275.16;;;3.20;100.00
13422;BME280;6782;55.904;13.396;2024-03-06T02:31:58;102268.00;;;3.12;100.00
13422;BME280;6782;55.904;13.396;2024-03-06T02:34:46;102256.41;;;3.03;100.00
13422;BME280;6782;55.904;13.396;2024-03-06T02:37:36;102276.63;;;3.11;100.00
13422;BME280;6782;55.904;13.396;2024-03-06T02:40:23;102275.06;;;3.16;100.00
13422;BME280;6782;55.904;13.396;2024-03-06T02:43:10;102272.19;;;3.07;100.00
13422;BME280;6782;55.904;13.396;2024-03-06T02:45:57;102282.72;;;3.12;100.00
13422;BME280;6782;55.904;13.396;2024-03-06T02:48:44;102281.84;;;3.11;100.00
13422;BME280;6782;55.904;13.396;2024-03-06T02:51:31;102285.47;;;3.16;100.00
13422;BME280;6782;55.904;13.396;2024-03-06T02:54:21;102284.31;;;3.07;100.00
13422;BME280;6782;55.904;13.396;2024-03-06T02:57:10;102287.91;;;3.10;100.00
13422;BME280;6782;55.904;13.396;2024-03-06T02:59:58;102285.13;;;3.06;100.00
13422;BME280;6782;55.904;13.396;2024-03-06T03:02:45;102294.97;;;3.14;100.00
13422;BME280;6782;55.904;13.396;2024-03-06T03:05:33;102284.31;;;3.07;100.00
13422;BME280;6782;55.904;13.396;2024-03-06T03:08:20;102298.41;;;3.13;100.00
13422;BME280;6782;55.904;13.396;2024-03-06T03:11:09;102299.44;;;3.18;100.00
13422;BME280;6782;55.904;13.396;2024-03-06T03:13:57;102297.59;;;3.14;100.00
13422;BME280;6782;55.904;13.396;2024-03-06T03:16:45;102289.56;;;3.08;100.00
13422;BME280;6782;55.904;13.396;2024-03-06T03:19:32;102294.16;;;3.15;100.00
13422;BME280;6782;55.904;13.396;2024-03-06T03:22:20;102304.03;;;3.26;100.00
13422;BME280;6782;55.904;13.396;2024-03-06T03:25:09;102297.69;;;3.17;100.00
13422;BME280;6782;55.904;13.396;2024-03-06T03:27:59;102286.09;;;3.08;100.00
13422;BME280;6782;55.904;13.396;2024-03-06T03:30:46;102292.28;;;3.11;100.00
13422;BME280;6782;55.904;13.396;2024-03-06T03:33:33;102293.84;;;3.06;100.00
13422;BME280;6782;55.904;13.396;2024-03-06T03:36:21;102293.75;;;3.03;100.00
13422;BME280;6782;55.904;13.396;2024-03-06T03:39:10;102299.16;;;3.09;100.00
13422;BME280;6782;55.904;13.396;2024-03-06T03:42:01;102301.63;;;3.05;100.00
13422;BME280;6782;55.904;13.396;2024-03-06T03:44:50;102298.88;;;3.00;100.00
13422;BME280;6782;55.904;13.396;2024-03-06T03:47:37;102316.28;;;3.01;100.00
13422;BME280;6782;55.904;13.396;2024-03-06T03:50:24;102321.09;;;3.16;100.00
13422;BME280;6782;55.904;13.396;2024-03-06T03:53:11;102319.81;;;3.03;100.00
13422;BME280;6782;55.904;13.396;2024-03-06T03:55:59;102341.16;;;3.18;100.00
13422;BME280;6782;55.904;13.396;2024-03-06T03:58:46;102330.44;;;3.09;100.00
13422;BME280;6782;55.904;13.396;2024-03-06T04:01:35;102341.06;;;3.15;100.00
13422;BME280;6782;55.904;13.396;2024-03-06T04:04:23;102346.28;;;3.15;100.00
13422;BME280;6782;55.904;13.396;2024-03-06T04:07:11;102344.63;;;3.17;100.00
13422;BME280;6782;55.904;13.396;2024-03-06T04:09:58;102356.91;;;3.22;100.00
13422;BME280;6782;55.904;13.396;2024-03-06T04:12:45;102345.50;;;3.18;100.00
13422;BME280;6782;55.904;13.396;2024-03-06T04:15:32;102349.72;;;3.14;100.00
13422;BME280;6782;55.904;13.396;2024-03-06T04:18:21;102354.66;;;3.05;100.00
13422;BME280;6782;55.904;13.396;2024-03-06T04:21:09;102357.41;;;3.10;100.00
13422;BME280;6782;55.904;13.396;2024-03-06T04:23:56;102373.94;;;3.10;100.00
13422;BME280;6782;55.904;13.396;2024-03-06T04:26:44;102366.94;;;3.09;100.00
13422;BME280;6782;55.904;13.396;2024-03-06T04:29:31;102379.22;;;3.13;100.00
13422;BME280;6782;55.904;13.396;2024-03-06T04:32:19;102375.78;;;3.14;100.00
13422;BME280;6782;55.904;13.396;2024-03-06T04:35:10;102379.22;;;3.13;100.00
13422;BME280;6782;55.904;13.396;2024-03-06T04:37:57;102388.06;;;3.18;100.00
13422;BME280;6782;55.904;13.396;2024-03-06T04:40:47;102387.25;;;3.20;100.00
13422;BME280;6782;55.904;13.396;2024-03-06T04:43:34;102388.94;;;3.17;100.00
13422;BME280;6782;55.904;13.396;2024-03-06T04:46:22;102382.84;;;3.18;100.00
13422;BME280;6782;55.904;13.396;2024-03-06T04:49:09;102394.50;;;3.28;100.00
13422;BME280;6782;55.904;13.396;2024-03-06T04:51:58;102381.09;;;3.17;100.00
13422;BME280;6782;55.904;13.396;2024-03-06T04:54:45;102393.28;;;3.18;100.00
13422;BME280;6782;55.904;13.396;2024-03-06T04:57:33;102397.53;;;3.15;100.00
13422;BME280;6782;55.904;13.396;2024-03-06T05:00:20;102401.97;;;3.17;100.00
13422;BME280;6782;55.904;13.396;2024-03-06T05:03:07;102402.78;;;3.16;100.00
13422;BME280;6782;55.904;13.396;2024-03-06T05:05:54;102407.06;;;3.14;100.00
13422;BME280;6782;55.904;13.396;2024-03-06T05:08:43;102409.03;;;3.22;100.00
13422;BME280;6782;55.904;13.396;2024-03-06T05:11:30;102411.47;;;3.15;100.00
13422;BME280;6782;55.904;13.396;2024-03-06T05:14:18;102409.78;;;3.17;100.00
13422;BME280;6782;55.904;13.396;2024-03-06T05:17:06;102405.28;;;3.13;100.00
13422;BME280;6782;55.904;13.396;2024-03-06T05:19:56;102419.31;;;3.17;100.00
13422;BME280;6782;55.904;13.396;2024-03-06T05:22:43;102431.47;;;3.16;100.00
13422;BME280;6782;55.904;13.396;2024-03-06T05:25:32;102434.28;;;3.23;100.00
13422;BME280;6782;55.904;13.396;2024-03-06T05:28:20;102426.34;;;3.20;100.00
13422;BME280;6782;55.904;13.396;2024-03-06T05:31:16;102438.47;;;3.17;100.00
13422;BME280;6782;55.904;13.396;2024-03-06T05:34:05;102428.81;;;3.15;100.00
13422;BME280;6782;55.904;13.396;2024-03-06T05:36:52;102438.34;;;3.14;100.00
13422;BME280;6782;55.904;13.396;2024-03-06T05:39:39;102439.28;;;3.16;100.00
13422;BME280;6782;55.904;13.396;2024-03-06T05:42:29;102431.34;;;3.13;100.00
13422;BME280;6782;55.904;13.396;2024-03-06T05:45:17;102446.31;;;3.19;100.00
13422;BME280;6782;55.904;13.396;2024-03-06T05:48:05;102444.50;;;3.16;100.00
13422;BME280;6782;55.904;13.396;2024-03-06T05:50:52;102438.34;;;3.14;100.00
13422;BME280;6782;55.904;13.396;2024-03-06T05:53:40;102431.28;;;3.10;100.00
13422;BME280;6782;55.904;13.396;2024-03-06T05:56:28;102448.88;;;3.17;100.00
13422;BME280;6782;55.904;13.396;2024-03-06T05:59:18;102452.41;;;3.20;100.00
13422;BME280;6782;55.904;13.396;2024-03-06T06:02:06;102455.03;;;3.20;100.00
13422;BME280;6782;55.904;13.396;2024-03-06T06:04:53;102455.97;;;3.22;100.00
13422;BME280;6782;55.904;13.396;2024-03-06T06:07:41;102464.63;;;3.21;100.00
13422;BME280;6782;55.904;13.396;2024-03-06T06:10:28;102459.16;;;3.13;100.00
13422;BME280;6782;55.904;13.396;2024-03-06T06:13:15;102469.75;;;3.17;100.00
13422;BME280;6782;55.904;13.396;2024-03-06T06:16:05;102469.53;;;3.11;100.00
13422;BME280;6782;55.904;13.396;2024-03-06T06:18:53;102478.19;;;3.10;100.00
13422;BME280;6782;55.904;13.396;2024-03-06T06:21:40;102482.63;;;3.13;100.00
13422;BME280;6782;55.904;13.396;2024-03-06T06:24:27;102490.72;;;3.21;100.00
13422;BME280;6782;55.904;13.396;2024-03-06T06:27:15;102488.81;;;3.16;100.00
13422;BME280;6782;55.904;13.396;2024-03-06T06:30:03;102492.47;;;3.22;100.00
13422;BME280;6782;55.904;13.396;2024-03-06T06:32:52;102499.47;;;3.23;100.00
13422;BME280;6782;55.904;13.396;2024-03-06T06:35:39;102501.22;;;3.24;100.00
13422;BME280;6782;55.904;13.396;2024-03-06T06:38:27;102504.44;;;3.16;100.00
13422;BME280;6782;55.904;13.396;2024-03-06T06:41:14;102509.09;;;3.25;100.00
13422;BME280;6782;55.904;13.396;2024-03-06T06:44:01;102513.44;;;3.25;100.00
13422;BME280;6782;55.904;13.396;2024-03-06T06:46:49;102522.19;;;3.27;100.00
13422;BME280;6782;55.904;13.396;2024-03-06T06:49:38;102523.97;;;3.28;100.00
13422;BME280;6782;55.904;13.396;2024-03-06T06:52:25;102528.97;;;3.22;100.00
13422;BME280;6782;55.904;13.396;2024-03-06T06:55:14;102515.09;;;3.23;100.00
13422;BME280;6782;55.904;13.396;2024-03-06T06:58:06;102531.84;;;3.29;100.00
13422;BME280;6782;55.904;13.396;2024-03-06T07:00:53;102520.22;;;3.20;100.00
13422;BME280;6782;55.904;13.396;2024-03-06T07:03:41;102521.38;;;3.28;100.00
13422;BME280;6782;55.904;13.396;2024-03-06T07:06:30;102523.72;;;3.20;100.00
13422;BME280;6782;55.904;13.396;2024-03-06T07:09:18;102528.84;;;3.18;100.00
13422;BME280;6782;55.904;13.396;2024-03-06T07:12:06;102528.19;;;3.24;100.00
13422;BME280;6782;55.904;13.396;2024-03-06T07:14:54;102536.66;;;3.18;100.00
13422;BME280;6782;55.904;13.396;2024-03-06T07:17:41;102546.31;;;3.21;100.00
13422;BME280;6782;55.904;13.396;2024-03-06T07:20:28;102562.16;;;3.26;100.00
13422;BME280;6782;55.904;13.396;2024-03-06T07:23:21;102560.38;;;3.25;100.00
13422;BME280;6782;55.904;13.396;2024-03-06T07:26:08;102564.63;;;3.23;100.00
13422;BME280;6782;55.904;13.396;2024-03-06T07:28:56;102581.66;;;3.37;100.00
13422;BME280;6782;55.904;13.396;2024-03-06T07:31:44;102587.81;;;3.39;100.00
13422;BME280;6782;55.904;13.396;2024-03-06T07:34:31;102583.53;;;3.41;100.00
13422;BME280;6782;55.904;13.396;2024-03-06T07:37:19;102575.47;;;3.33;100.00
13422;BME280;6782;55.904;13.396;2024-03-06T07:40:09;102588.66;;;3.38;100.00
13422;BME280;6782;55.904;13.396;2024-03-06T07:42:57;102583.69;;;3.45;100.00
13422;BME280;6782;55.904;13.396;2024-03-06T07:45:45;102594.50;;;3.56;100.00
13422;BME280;6782;55.904;13.396;2024-03-06T07:48:33;102585.41;;;3.45;100.00
13422;BME280;6782;55.904;13.396;2024-03-06T07:51:22;102589.97;;;3.50;100.00
13422;BME280;6782;55.904;13.396;2024-03-06T07:54:10;102597.94;;;3.55;100.00
13422;BME280;6782;55.904;13.396;2024-03-06T07:56:59;102589.06;;;3.50;100.00
13422;BME280;6782;55.904;13.396;2024-03-06T07:59:46;102594.41;;;3.53;100.00
13422;BME280;6782;55.904;13.396;2024-03-06T08:02:35;102590.63;;;3.45;100.00
13422;BME280;6782;55.904;13.396;2024-03-06T08:05:23;102604.69;;;3.48;100.00
13422;BME280;6782;55.904;13.396;2024-03-06T08:08:11;102601.28;;;3.51;100.00
13422;BME280;6782;55.904;13.396;2024-03-06T08:10:58;102613.69;;;3.58;100.00
13422;BME280;6782;55.904;13.396;2024-03-06T08:13:48;102617.16;;;3.57;100.00
13422;BME280;6782;55.904;13.396;2024-03-06T08:16:36;102627.91;;;3.66;100.00
13422;BME280;6782;55.904;13.396;2024-03-06T08:19:23;102631.44;;;3.68;100.00
13422;BME280;6782;55.904;13.396;2024-03-06T08:22:12;102640.53;;;3.79;100.00
13422;BME280;6782;55.904;13.396;2024-03-06T08:25:00;102624.34;;;3.64;100.00
13422;BME280;6782;55.904;13.396;2024-03-06T08:27:47;102627.78;;;3.63;100.00
13422;BME280;6782;55.904;13.396;2024-03-06T08:30:37;102643.03;;;3.76;100.00
13422;BME280;6782;55.904;13.396;2024-03-06T08:33:25;102650.88;;;3.76;100.00
13422;BME280;6782;55.904;13.396;2024-03-06T08:36:15;102635.00;;;3.70;100.00
13422;BME280;6782;55.904;13.396;2024-03-06T08:39:02;102642.09;;;3.74;100.00
13422;BME280;6782;55.904;13.396;2024-03-06T08:41:51;102659.22;;;3.91;100.00
13422;BME280;6782;55.904;13.396;2024-03-06T08:44:38;102644.91;;;3.80;100.00
13422;BME280;6782;55.904;13.396;2024-03-06T08:47:27;102645.75;;;3.79;100.00
13422;BME280;6782;55.904;13.396;2024-03-06T08:50:15;102645.00;;;3.83;100.00
13422;BME280;6782;55.904;13.396;2024-03-06T08:53:03;102644.19;;;3.84;100.00
13422;BME280;6782;55.904;13.396;2024-03-06T08:55:50;102640.66;;;3.82;100.00
13422;BME280;6782;55.904;13.396;2024-03-06T08:58:38;102645.19;;;3.88;100.00
13422;BME280;6782;55.904;13.396;2024-03-06T09:01:26;102645.19;;;3.88;100.00
13422;BME280;6782;55.904;13.396;2024-03-06T09:04:15;102650.69;;;3.95;100.00
13422;BME280;6782;55.904;13.396;2024-03-06T09:07:02;102647.22;;;3.96;100.00
13422;BME280;6782;55.904;13.396;2024-03-06T09:09:50;102648.88;;;3.94;100.00
13422;BME280;6782;55.904;13.396;2024-03-06T09:12:37;102655.16;;;3.99;100.00
13422;BME280;6782;55.904;13.396;2024-03-06T09:15:24;102653.69;;;4.07;100.00
13422;BME280;6782;55.904;13.396;2024-03-06T09:18:12;102641.97;;;3.95;100.00
13422;BME280;6782;55.904;13.396;2024-03-06T09:21:03;102637.69;;;3.98;100.00
13422;BME280;6782;55.904;13.396;2024-03-06T09:23:52;102640.53;;;4.04;100.00
13422;BME280;6782;55.904;13.396;2024-03-06T09:26:39;102646.53;;;4.02;100.00
13422;BME280;6782;55.904;13.396;2024-03-06T09:29:27;102655.88;;;4.20;100.00
13422;BME280;6782;55.904;13.396;2024-03-06T09:32:14;102657.94;;;4.30;100.00
13422;BME280;6782;55.904;13.396;2024-03-06T09:35:04;102661.50;;;4.32;100.00
13422;BME280;6782;55.904;13.396;2024-03-06T09:37:52;102662.59;;;4.39;100.00
13422;BME280;6782;55.904;13.396;2024-03-06T09:40:42;102666.38;;;4.49;100.00
13422;BME280;6782;55.904;13.396;2024-03-06T09:43:29;102647.78;;;4.39;100.00
13422;BME280;6782;55.904;13.396;2024-03-06T09:46:17;102639.59;;;4.29;100.00
13422;BME280;6782;55.904;13.396;2024-03-06T09:49:05;102651.44;;;4.44;100.00
13422;BME280;6782;55.904;13.396;2024-03-06T09:51:56;102645.38;;;4.46;100.00
13422;BME280;6782;55.904;13.396;2024-03-06T09:54:45;102632.41;;;4.49;100.00
13422;BME280;6782;55.904;13.396;2024-03-06T09:57:33;102636.75;;;4.48;100.00
13422;BME280;6782;55.904;13.396;2024-03-06T10:00:21;102626.50;;;4.54;100.00
13422;BME280;6782;55.904;13.396;2024-03-06T10:03:11;102624.75;;;4.55;100.00
13422;BME280;6782;55.904;13.396;2024-03-06T10:05:59;102617.88;;;4.57;100.00
13422;BME280;6782;55.904;13.396;2024-03-06T10:08:46;102607.75;;;4.67;100.00
13422;BME280;6782;55.904;13.396;2024-03-06T10:11:39;102614.06;;;4.75;100.00
13422;BME280;6782;55.904;13.396;2024-03-06T10:14:28;102592.94;;;4.68;100.00
13422;BME280;6782;55.904;13.396;2024-03-06T10:17:19;102573.63;;;4.63;100.00
13422;BME280;6782;55.904;13.396;2024-03-06T10:20:19;102588.13;;;4.81;100.00
13422;BME280;6782;55.904;13.396;2024-03-06T10:23:07;102595.50;;;4.94;100.00
13422;BME280;6782;55.904;13.396;2024-03-06T10:25:55;102595.91;;;5.08;100.00
13422;BME280;6782;55.904;13.396;2024-03-06T10:28:46;102596.50;;;4.99;100.00
13422;BME280;6782;55.904;13.396;2024-03-06T10:31:33;102590.03;;;5.17;100.00
13422;BME280;6782;55.904;13.396;2024-03-06T10:34:22;102562.41;;;4.95;100.00
13422;BME280;6782;55.904;13.396;2024-03-06T10:37:09;102552.81;;;4.95;100.00
13422;BME280;6782;55.904;13.396;2024-03-06T10:39:58;102541.50;;;4.96;100.00
13422;BME280;6782;55.904;13.396;2024-03-06T10:42:47;102549.78;;;5.12;100.00
13422;BME280;6782;55.904;13.396;2024-03-06T10:45:45;102537.69;;;5.15;100.00
13422;BME280;6782;55.904;13.396;2024-03-06T10:48:33;102530.88;;;5.22;100.00
13422;BME280;6782;55.904;13.396;2024-03-06T10:51:22;102524.03;;;5.27;100.00
13422;BME280;6782;55.904;13.396;2024-03-06T10:54:11;102493.09;;;5.11;100.00
13422;BME280;6782;55.904;13.396;2024-03-06T10:57:01;102492.38;;;5.16;100.00
13422;BME280;6782;55.904;13.396;2024-03-06T10:59:49;102491.69;;;5.23;100.00
13422;BME280;6782;55.904;13.396;2024-03-06T11:02:38;102468.84;;;5.16;100.00
13422;BME280;6782;55.904;13.396;2024-03-06T11:05:27;102461.75;;;5.12;100.00
13422;BME280;6782;55.904;13.396;2024-03-06T11:08:14;102450.47;;;5.15;100.00
13422;BME280;6782;55.904;13.396;2024-03-06T11:11:22;102433.75;;;5.08;100.00
13422;BME280;6782;55.904;13.396;2024-03-06T11:14:09;102426.91;;;5.13;100.00
13422;BME280;6782;55.904;13.396;2024-03-06T11:17:01;102443.28;;;5.40;100.00
13422;BME280;6782;55.904;13.396;2024-03-06T11:20:16;102418.75;;;5.35;100.00
13422;BME280;6782;55.904;13.396;2024-03-06T11:23:04;102395.47;;;5.10;100.00
13422;BME280;6782;55.904;13.396;2024-03-06T11:26:02;102393.75;;;5.12;100.00
13422;BME280;6782;55.904;13.396;2024-03-06T11:28:50;102388.78;;;5.21;100.00
13422;BME280;6782;55.904;13.396;2024-03-06T11:31:37;102380.06;;;5.22;100.00
13422;BME280;6782;55.904;13.396;2024-03-06T11:34:24;102356.31;;;5.13;100.00
13422;BME280;6782;55.904;13.396;2024-03-06T11:37:21;102350.22;;;5.14;100.00
13422;BME280;6782;55.904;13.396;2024-03-06T11:40:09;102347.84;;;5.23;100.00
13422;BME280;6782;55.904;13.396;2024-03-06T11:43:22;102348.81;;;5.28;100.00
13422;BME280;6782;55.904;13.396;2024-03-06T11:46:10;102341.09;;;5.33;100.00
13422;BME280;6782;55.904;13.396;2024-03-06T11:48:58;102329.59;;;5.26;100.00
13422;BME280;6782;55.904;13.396;2024-03-06T11:51:45;102320.00;;;5.27;100.00
13422;BME280;6782;55.904;13.396;2024-03-06T11:54:34;102297.91;;;5.14;100.00
13422;BME280;6782;55.904;13.396;2024-03-06T11:57:22;102323.84;;;5.41;100.00
13422;BME280;6782;55.904;13.396;2024-03-06T12:00:10;102295.72;;;5.32;100.00
13422;BME280;6782;55.904;13.396;2024-03-06T12:02:58;102270.88;;;5.14;100.00
13422;BME280;6782;55.904;13.396;2024-03-06T12:05:46;102253.34;;;5.08;100.00
13422;BME280;6782;55.904;13.396;2024-03-06T12:08:33;102254.25;;;5.10;100.00
13422;BME280;6782;55.904;13.396;2024-03-06T12:11:23;102256.41;;;5.29;100.00
13422;BME280;6782;55.904;13.396;2024-03-06T12:14:14;102239.81;;;5.27;100.00
13422;BME280;6782;55.904;13.396;2024-03-06T12:17:03;102263.16;;;5.57;100.00
13422;BME280;6782;55.904;13.396;2024-03-06T12:19:50;102246.34;;;5.47;100.00
13422;BME280;6782;55.904;13.396;2024-03-06T12:22:43;102232.28;;;5.42;100.00
13422;BME280;6782;55.904;13.396;2024-03-06T12:25:31;102220.16;;;5.44;100.00
13422;BME280;6782;55.904;13.396;2024-03-06T12:28:24;102220.38;;;5.56;100.00
13422;BME280;6782;55.904;13.396;2024-03-06T12:31:11;102217.09;;;5.66;100.00
13422;BME280;6782;55.904;13.396;2024-03-06T12:33:59;102179.88;;;5.39;100.00
13422;BME280;6782;55.904;13.396;2024-03-06T12:36:48;102207.13;;;5.91;100.00
13422;BME280;6782;55.904;13.396;2024-03-06T12:39:35;102161.31;;;5.69;100.00
13422;BME280;6782;55.904;13.396;2024-03-06T12:42:22;102150.94;;;5.74;100.00
13422;BME280;6782;55.904;13.396;2024-03-06T12:45:11;102138.72;;;5.73;100.00
13422;BME280;6782;55.904;13.396;2024-03-06T12:47:59;102127.41;;;5.75;100.00
13422;BME280;6782;55.904;13.396;2024-03-06T12:50:46;102134.78;;;5.96;100.00
13422;BME280;6782;55.904;13.396;2024-03-06T12:53:37;102116.50;;;5.97;100.00
13422;BME280;6782;55.904;13.396;2024-03-06T12:56:26;102113.03;;;6.00;100.00
13422;BME280;6782;55.904;13.396;2024-03-06T12:59:13;102124.19;;;6.39;100.00
13422;BME280;6782;55.904;13.396;2024-03-06T13:02:02;102104.97;;;6.40;100.00
13422;BME280;6782;55.904;13.396;2024-03-06T13:04:50;102081.22;;;6.29;100.00
13422;BME280;6782;55.904;13.396;2024-03-06T13:07:37;102077.88;;;6.40;100.00
13422;BME280;6782;55.904;13.396;2024-03-06T13:10:25;102053.34;;;6.35;100.00
13422;BME280;6782;55.904;13.396;2024-03-06T13:13:12;102038.69;;;6.47;100.00
13422;BME280;6782;55.904;13.396;2024-03-06T13:15:59;102007.00;;;6.29;100.00
13422;BME280;6782;55.904;13.396;2024-03-06T13:18:47;102002.03;;;6.50;100.00
13422;BME280;6782;55.904;13.396;2024-03-06T13:21:35;101993.31;;;6.51;100.00
13422;BME280;6782;55.904;13.396;2024-03-06T13:24:22;101997.06;;;6.71;100.00
13422;BME280;6782;55.904;13.396;2024-03-06T13:27:09;101970.81;;;6.68;100.00
13422;BME280;6782;55.904;13.396;2024-03-06T13:29:56;101949.72;;;6.56;100.00
13422;BME280;6782;55.904;13.396;2024-03-06T13:32:44;101961.34;;;6.81;100.00
13422;BME280;6782;55.904;13.396;2024-03-06T13:35:33;101939.47;;;6.77;100.00
13422;BME280;6782;55.904;13.396;2024-03-06T13:38:20;101934.44;;;6.96;100.00
13422;BME280;6782;55.904;13.396;2024-03-06T13:41:07;101916.25;;;7.14;100.00
13422;BME280;6782;55.904;13.396;2024-03-06T13:43:54;101897.09;;;7.25;100.00
13422;BME280;6782;55.904;13.396;2024-03-06T13:46:41;101864.91;;;7.46;100.00
13422;BME280;6782;55.904;13.396;2024-03-06T13:49:38;101821.16;;;7.48;100.00
13422;BME280;6782;55.904;13.396;2024-03-06T13:52:27;101766.88;;;7.42;100.00
13422;BME280;6782;55.904;13.396;2024-03-06T13:55:14;101731.94;;;7.48;100.00
13422;BME280;6782;55.904;13.396;2024-03-06T13:58:02;101712.72;;;7.55;100.00
13422;BME280;6782;55.904;13.396;2024-03-06T14:00:49;101679.47;;;7.54;100.00
13422;BME280;6782;55.904;13.396;2024-03-06T14:03:37;101627.81;;;7.45;100.00
13422;BME280;6782;55.904;13.396;2024-03-06T14:06:25;101606.84;;;7.57;100.00
13422;BME280;6782;55.904;13.396;2024-03-06T14:09:14;101558.72;;;7.48;100.00
13422;BME280;6782;55.904;13.396;2024-03-06T14:12:01;101465.94;;;7.29;100.00
13422;BME280;6782;55.904;13.396;2024-03-06T14:14:49;101464.22;;;7.36;100.00
13422;BME280;6782;55.904;13.396;2024-03-06T14:17:36;101408.25;;;7.34;100.00
13422;BME280;6782;55.904;13.396;2024-03-06T14:20:23;101313.81;;;7.13;100.00
13422;BME280;6782;55.904;13.396;2024-03-06T14:23:11;101273.59;;;7.14;100.00
13422;BME280;6782;55.904;13.396;2024-03-06T14:25:59;101248.22;;;7.25;100.00
13422;BME280;6782;55.904;13.396;2024-03-06T14:28:48;101169.56;;;7.05;100.00
13422;BME280;6782;55.904;13.396;2024-03-06T14:31:35;101170.44;;;7.09;100.00
13422;BME280;6782;55.904;13.396;2024-03-06T14:34:23;101140.69;;;7.13;100.00
13422;BME280;6782;55.904;13.396;2024-03-06T14:37:10;101134.56;;;7.18;100.00
13422;BME280;6782;55.904;13.396;2024-03-06T14:39:57;101113.59;;;7.06;100.00